createdAt,value
2022-12-17T00:01:56.449Z,56.47
2022-12-17T00:04:42.506Z,52.97
2022-12-17T00:07:28.322Z,56.80
2022-12-17T00:10:14.289Z,50.10
2022-12-17T00:13:00.169Z,52.77
2022-12-17T00:15:46.060Z,62.03
2022-12-17T00:18:32.200Z,62.67
2022-12-17T00:21:19.267Z,63.07
2022-12-17T00:24:05.816Z,60.10
2022-12-17T00:26:51.806Z,60.20
2022-12-17T00:29:37.597Z,67.50
2022-12-17T00:32:23.623Z,56.77
2022-12-17T00:35:09.577Z,57.87
2022-12-17T00:37:55.603Z,67.83
2022-12-17T00:40:42.039Z,55.37
2022-12-17T00:43:29.764Z,71.10
2022-12-17T00:46:15.969Z,58.67
2022-12-17T00:49:01.592Z,60.47
2022-12-17T00:51:47.661Z,62.83
2022-12-17T00:54:33.597Z,55.80
2022-12-17T00:57:19.487Z,57.40
2022-12-17T01:00:05.445Z,63.83
2022-12-17T01:02:51.518Z,59.20
2022-12-17T01:05:37.951Z,63.20
2022-12-17T01:08:31.359Z,56.93
2022-12-17T01:11:24.074Z,59.00
2022-12-17T01:14:09.885Z,59.17
2022-12-17T01:16:56.297Z,60.13
2022-12-17T01:19:42.184Z,56.67
2022-12-17T01:22:28.108Z,60.27
2022-12-17T01:25:14.051Z,55.90
2022-12-17T01:28:00.027Z,54.17
2022-12-17T01:30:46.009Z,48.80
2022-12-17T01:33:31.880Z,46.93
2022-12-17T01:36:20.823Z,51.20
2022-12-17T01:39:06.716Z,54.63
2022-12-17T01:41:52.711Z,53.60
2022-12-17T01:44:58.060Z,47.20
2022-12-17T01:47:48.976Z,52.27
2022-12-17T01:50:36.410Z,56.03
2022-12-17T01:53:24.658Z,51.73
2022-12-17T01:56:11.124Z,47.80
2022-12-17T01:58:57.916Z,54.10
2022-12-17T02:01:43.864Z,46.83
2022-12-17T02:04:30.765Z,48.20
2022-12-17T02:07:31.411Z,51.23
2022-12-17T02:10:19.928Z,47.93
2022-12-17T02:13:13.972Z,49.43
2022-12-17T02:16:06.969Z,52.17
2022-12-17T02:18:59.243Z,52.33
2022-12-17T02:21:48.367Z,50.03
2022-12-17T02:24:44.407Z,55.83
2022-12-17T02:27:41.135Z,52.43
2022-12-17T02:30:27.740Z,48.47
2022-12-17T02:33:14.241Z,48.83
2022-12-17T02:36:01.627Z,52.50
2022-12-17T02:38:48.887Z,53.10
2022-12-17T02:41:39.102Z,50.97
2022-12-17T02:44:25.855Z,51.63
2022-12-17T02:47:12.498Z,53.63
2022-12-17T02:49:58.721Z,48.60
2022-12-17T02:52:46.243Z,50.60
2022-12-17T02:55:32.844Z,51.27
2022-12-17T02:58:18.857Z,61.60
2022-12-17T03:01:04.984Z,51.40
2022-12-17T03:03:50.760Z,55.07
2022-12-17T03:06:41.614Z,54.20
2022-12-17T03:09:27.536Z,56.43
2022-12-17T03:12:13.495Z,52.80
2022-12-17T03:14:59.434Z,52.73
2022-12-17T03:17:45.229Z,49.33
2022-12-17T03:20:31.219Z,57.47
2022-12-17T03:23:28.093Z,52.57
2022-12-17T03:26:17.055Z,53.43
2022-12-17T03:29:02.837Z,55.37
2022-12-17T03:31:48.696Z,53.40
2022-12-17T03:34:34.670Z,57.80
2022-12-17T03:37:20.615Z,59.50
2022-12-17T03:40:06.456Z,61.57
2022-12-17T03:42:52.296Z,59.93
2022-12-17T03:45:38.155Z,58.23
2022-12-17T03:48:28.075Z,57.77
2022-12-17T03:51:14.508Z,59.50
2022-12-17T03:54:01.906Z,72.53
2022-12-17T03:56:48.120Z,73.03
2022-12-17T03:59:33.912Z,60.10
2022-12-17T04:02:20.277Z,65.93
2022-12-17T04:05:06.148Z,68.70
2022-12-17T04:07:52.043Z,64.13
2022-12-17T04:10:38.055Z,69.63
2022-12-17T04:13:23.839Z,78.50
2022-12-17T04:16:11.242Z,79.63
2022-12-17T04:18:57.150Z,72.27
2022-12-17T04:21:42.999Z,69.90
2022-12-17T04:24:28.846Z,66.23
2022-12-17T04:27:14.543Z,79.13
2022-12-17T04:30:00.495Z,64.43
2022-12-17T04:32:46.494Z,69.60
2022-12-17T04:35:31.992Z,69.23
2022-12-17T04:38:17.722Z,70.23
2022-12-17T04:41:03.597Z,64.93
2022-12-17T04:43:49.600Z,68.23
2022-12-17T04:46:35.594Z,73.97
2022-12-17T04:49:21.569Z,66.80
2022-12-17T04:52:07.457Z,63.03
2022-12-17T04:54:53.116Z,76.47
2022-12-17T04:57:38.948Z,69.50
2022-12-17T05:00:24.813Z,74.93
2022-12-17T05:03:10.688Z,58.63
2022-12-17T05:05:56.433Z,57.83
2022-12-17T05:08:42.342Z,64.77
2022-12-17T05:11:28.402Z,73.73
2022-12-17T05:14:14.365Z,65.40
2022-12-17T05:17:00.423Z,61.53
2022-12-17T05:19:46.006Z,63.20
2022-12-17T05:22:31.906Z,62.97
2022-12-17T05:25:17.671Z,59.97
2022-12-17T05:28:05.203Z,66.10
2022-12-17T05:30:51.233Z,56.27
2022-12-17T05:33:39.558Z,64.63
2022-12-17T05:36:25.602Z,63.70
2022-12-17T05:39:11.514Z,64.40
2022-12-17T05:41:57.432Z,70.03
2022-12-17T05:44:43.345Z,61.73
2022-12-17T05:47:29.219Z,68.10
2022-12-17T05:50:15.290Z,65.07
2022-12-17T05:53:01.113Z,72.20
2022-12-17T05:55:46.876Z,67.63
2022-12-17T05:58:32.754Z,63.17
2022-12-17T06:01:20.597Z,64.53
2022-12-17T06:04:06.638Z,61.37
2022-12-17T06:06:52.730Z,81.80
2022-12-17T06:09:38.816Z,58.67
2022-12-17T06:12:38.512Z,58.73
2022-12-17T06:15:24.527Z,63.93
2022-12-17T06:18:16.964Z,59.20
2022-12-17T06:21:03.409Z,59.40
2022-12-17T06:23:49.209Z,61.83
2022-12-17T06:26:34.861Z,59.13
2022-12-17T06:29:20.747Z,59.53
2022-12-17T06:32:06.703Z,71.87
2022-12-17T06:34:52.431Z,59.37
2022-12-17T06:37:38.476Z,59.20
2022-12-17T06:40:24.664Z,52.23
2022-12-17T06:43:13.537Z,49.00
2022-12-17T06:45:59.393Z,54.57
2022-12-17T06:48:45.444Z,51.37
2022-12-17T06:51:31.372Z,51.50
2022-12-17T06:54:17.132Z,45.60
2022-12-17T06:57:03.075Z,64.33
2022-12-17T06:59:49.085Z,45.60
2022-12-17T07:02:36.630Z,56.67
2022-12-17T07:05:23.802Z,51.97
2022-12-17T07:08:19.756Z,54.73
2022-12-17T07:11:05.969Z,50.43
2022-12-17T07:13:51.727Z,58.47
2022-12-17T07:19:27.482Z,57.60
2022-12-17T07:22:13.265Z,51.63
2022-12-17T07:24:59.241Z,55.30
2022-12-17T07:27:44.971Z,52.00
2022-12-17T07:30:30.985Z,44.13
2022-12-17T07:33:17.748Z,51.03
2022-12-17T07:36:03.645Z,47.60
2022-12-17T07:38:49.796Z,51.67
2022-12-17T07:41:35.827Z,52.60
2022-12-17T07:44:21.605Z,43.07
2022-12-17T07:47:07.372Z,53.80
2022-12-17T07:49:53.259Z,58.10
2022-12-17T07:52:39.352Z,47.37
2022-12-17T07:55:25.275Z,51.93
2022-12-17T07:58:20.865Z,52.00
2022-12-17T08:01:06.887Z,50.73
2022-12-17T08:03:52.458Z,46.53
2022-12-17T08:06:38.502Z,41.47
2022-12-17T08:09:24.039Z,43.50
2022-12-17T08:12:26.819Z,48.20
2022-12-17T08:15:12.804Z,43.17
2022-12-17T08:17:58.734Z,43.93
2022-12-17T08:20:44.593Z,40.13
2022-12-17T08:23:30.491Z,52.50
2022-12-17T08:26:16.190Z,51.37
2022-12-17T08:29:01.970Z,51.90
2022-12-17T08:31:47.782Z,54.50
2022-12-17T08:34:34.869Z,57.50
2022-12-17T08:37:20.601Z,56.77
2022-12-17T08:40:06.430Z,48.67
2022-12-17T08:42:52.281Z,54.00
2022-12-17T08:45:38.256Z,57.03
2022-12-17T08:48:25.354Z,65.60
2022-12-17T08:51:11.273Z,58.57
2022-12-17T08:53:56.879Z,54.87
2022-12-17T08:56:42.884Z,57.43
2022-12-17T08:59:28.803Z,58.07
2022-12-17T09:02:14.926Z,58.77
2022-12-17T09:05:01.016Z,50.03
2022-12-17T09:07:46.992Z,53.47
2022-12-17T09:10:32.772Z,53.93
2022-12-17T09:13:21.807Z,67.83
2022-12-17T09:16:11.450Z,56.10
2022-12-17T09:18:57.450Z,62.37
2022-12-17T09:21:43.315Z,52.70
2022-12-17T09:24:29.754Z,55.77
2022-12-17T09:27:15.635Z,52.37
2022-12-17T09:30:01.541Z,48.77
2022-12-17T09:32:47.432Z,53.10
2022-12-17T09:35:33.248Z,42.47
2022-12-17T09:38:19.155Z,46.50
2022-12-17T09:41:06.106Z,43.33
2022-12-17T09:44:07.107Z,41.30
2022-12-17T09:46:58.384Z,46.23
2022-12-17T09:49:46.003Z,42.27
2022-12-17T09:52:44.114Z,44.67
2022-12-17T09:55:34.656Z,45.67
2022-12-17T09:58:20.825Z,35.97
2022-12-17T10:01:06.509Z,49.03
2022-12-17T10:03:53.431Z,38.70
2022-12-17T10:06:41.999Z,46.77
2022-12-17T10:09:32.861Z,47.07
2022-12-17T10:12:35.749Z,48.83
2022-12-17T10:15:21.920Z,46.93
2022-12-17T10:18:07.962Z,53.63
2022-12-17T10:20:58.724Z,49.40
2022-12-17T10:23:48.957Z,56.60
2022-12-17T10:26:37.662Z,56.53
2022-12-17T10:29:31.221Z,62.87
2022-12-17T10:32:29.164Z,59.03
2022-12-17T10:35:15.137Z,64.10
2022-12-17T10:38:00.935Z,58.30
2022-12-17T10:40:48.032Z,62.13
2022-12-17T10:43:41.421Z,52.97
2022-12-17T10:46:27.461Z,58.80
2022-12-17T10:49:23.147Z,64.83
2022-12-17T10:52:09.536Z,60.37
2022-12-17T10:57:25.768Z,48.93
2022-12-17T11:00:11.500Z,45.13
2022-12-17T11:02:57.682Z,50.93
2022-12-17T11:05:46.630Z,51.37
2022-12-17T11:08:34.016Z,49.83
2022-12-17T11:11:25.768Z,48.00
2022-12-17T11:14:11.667Z,50.20
2022-12-17T11:17:08.147Z,46.47
2022-12-17T11:19:57.342Z,44.40
2022-12-17T11:23:01.905Z,42.43
2022-12-17T11:25:47.869Z,46.00
2022-12-17T11:28:36.678Z,40.10
2022-12-17T11:31:45.136Z,49.97
2022-12-17T11:34:45.940Z,48.80
2022-12-17T11:37:34.472Z,42.43
2022-12-17T11:40:49.218Z,45.23
2022-12-17T11:43:38.716Z,44.53
2022-12-17T11:46:33.270Z,42.87
2022-12-17T11:49:27.879Z,44.80
2022-12-17T11:52:17.821Z,38.17
2022-12-17T11:55:03.813Z,35.43
2022-12-17T11:57:55.183Z,42.67
2022-12-17T12:00:42.633Z,40.30
2022-12-17T12:03:31.358Z,45.13
2022-12-17T12:06:18.116Z,38.83
2022-12-17T12:09:06.572Z,43.40
2022-12-17T12:11:59.630Z,38.90
2022-12-17T12:14:58.828Z,39.43
2022-12-17T12:17:47.346Z,41.50
2022-12-17T12:20:41.109Z,44.87
2022-12-17T12:23:49.553Z,35.70
2022-12-17T12:26:37.298Z,38.93
2022-12-17T12:29:32.020Z,43.53
2022-12-17T12:32:23.600Z,36.80
2022-12-17T12:35:10.572Z,40.20
2022-12-17T12:37:56.900Z,44.23
2022-12-17T12:40:59.482Z,51.50
2022-12-17T12:43:57.268Z,40.43
2022-12-17T12:46:48.958Z,38.77
2022-12-17T12:49:35.010Z,48.27
2022-12-17T12:52:21.013Z,35.60
2022-12-17T12:55:07.009Z,37.37
2022-12-17T12:57:57.252Z,36.40
2022-12-17T13:00:43.050Z,48.30
2022-12-17T13:03:48.106Z,36.83
2022-12-17T13:06:35.785Z,38.27
2022-12-17T13:09:22.521Z,43.47
2022-12-17T13:12:05.994Z,32.67
2022-12-17T13:14:46.696Z,43.17
2022-12-17T13:17:13.825Z,43.63
2022-12-17T13:19:42.745Z,41.20
2022-12-17T13:22:28.240Z,38.70
2022-12-17T13:24:57.742Z,33.63
2022-12-17T13:27:39.218Z,35.37
2022-12-17T13:30:18.651Z,38.03
2022-12-17T13:33:12.093Z,34.57
2022-12-17T13:35:46.990Z,41.33
2022-12-17T13:38:19.437Z,36.40
2022-12-17T13:41:05.274Z,35.47
2022-12-17T13:43:58.657Z,37.73
2022-12-17T13:46:30.509Z,35.70
2022-12-17T13:49:01.988Z,34.50
2022-12-17T13:51:31.116Z,35.13
2022-12-17T13:53:59.306Z,34.57
2022-12-17T13:56:30.938Z,41.13
2022-12-17T13:59:03.166Z,34.60
2022-12-17T14:01:33.568Z,42.53
2022-12-17T14:04:06.617Z,38.57
2022-12-17T14:06:35.955Z,38.07
2022-12-17T14:09:03.595Z,41.67
2022-12-17T14:11:49.659Z,37.50
2022-12-17T14:14:28.131Z,45.23
2022-12-17T14:16:55.542Z,37.17
2022-12-17T14:19:23.157Z,40.17
2022-12-17T14:21:50.407Z,50.13
2022-12-17T14:24:18.403Z,46.70
2022-12-17T14:26:52.280Z,43.80
2022-12-17T14:29:23.563Z,42.83
2022-12-17T14:31:57.667Z,38.43
2022-12-17T14:34:25.200Z,41.17
2022-12-17T14:36:59.115Z,43.97
2022-12-17T14:39:30.221Z,40.77
2022-12-17T14:42:17.302Z,46.47
2022-12-17T14:45:10.559Z,44.97
2022-12-17T14:47:38.376Z,49.40
2022-12-17T14:50:14.385Z,48.73
2022-12-17T14:52:54.805Z,55.87
2022-12-17T14:55:28.156Z,52.13
2022-12-17T14:58:07.489Z,50.23
2022-12-17T15:00:35.117Z,51.47
2022-12-17T15:03:02.490Z,51.90
2022-12-17T15:05:29.966Z,52.73
2022-12-17T15:07:57.116Z,65.30
2022-12-17T15:10:24.389Z,56.33
2022-12-17T15:12:52.886Z,70.20
2022-12-17T15:15:21.670Z,66.67
2022-12-17T15:17:48.815Z,62.43
2022-12-17T15:20:20.712Z,70.60
2022-12-17T15:22:48.467Z,64.90
2022-12-17T15:25:17.908Z,70.23
2022-12-17T15:27:45.035Z,60.17
2022-12-17T15:30:15.969Z,62.73
2022-12-17T15:32:43.306Z,62.33
2022-12-17T15:35:28.420Z,66.67
2022-12-17T15:37:55.907Z,56.00
2022-12-17T15:40:22.988Z,60.10
2022-12-17T15:43:08.699Z,61.13
2022-12-17T15:45:35.807Z,56.90
2022-12-17T15:48:02.895Z,57.43
2022-12-17T15:50:30.232Z,63.93
2022-12-17T15:52:57.322Z,69.50
2022-12-17T15:55:24.490Z,63.10
2022-12-17T15:57:51.528Z,71.57
2022-12-17T16:00:18.674Z,67.57
2022-12-17T16:02:45.941Z,59.00
2022-12-17T16:05:13.229Z,63.23
2022-12-17T16:07:40.342Z,69.80
2022-12-17T16:10:07.497Z,55.50
2022-12-17T16:12:34.629Z,59.00
2022-12-17T16:15:01.690Z,53.63
2022-12-17T16:17:28.923Z,54.23
2022-12-17T16:19:55.948Z,64.57
2022-12-17T16:22:23.070Z,56.23
2022-12-17T16:24:52.636Z,55.27
2022-12-17T16:27:20.096Z,58.07
2022-12-17T16:29:48.190Z,54.80
2022-12-17T16:32:15.859Z,52.83
2022-12-17T16:34:43.133Z,51.03
2022-12-17T16:37:10.280Z,49.97
2022-12-17T16:39:37.607Z,47.10
2022-12-17T16:42:04.949Z,53.43
2022-12-17T16:44:32.121Z,50.60
2022-12-17T16:46:59.814Z,48.57
2022-12-17T16:49:27.184Z,50.67
2022-12-17T16:51:57.767Z,46.10
2022-12-17T16:54:26.656Z,46.07
2022-12-17T16:56:54.175Z,47.77
2022-12-17T16:59:22.146Z,50.27
2022-12-17T17:01:49.813Z,51.27
2022-12-17T17:04:17.652Z,51.23
2022-12-17T17:06:46.141Z,55.50
2022-12-17T17:09:13.981Z,47.33
2022-12-17T17:11:41.069Z,43.90
2022-12-17T17:14:09.044Z,44.93
2022-12-17T17:16:36.881Z,62.30
2022-12-17T17:19:06.921Z,54.30
2022-12-17T17:21:38.669Z,48.03
2022-12-17T17:24:16.765Z,46.50
2022-12-17T17:26:47.974Z,53.10
2022-12-17T17:29:15.229Z,48.07
2022-12-17T17:34:29.390Z,63.93
2022-12-17T17:36:56.507Z,59.53
2022-12-17T17:39:23.688Z,54.03
2022-12-17T17:41:50.748Z,48.77
2022-12-17T17:44:17.793Z,50.63
2022-12-17T17:46:45.323Z,58.43
2022-12-17T17:49:12.739Z,53.00
2022-12-17T17:54:31.105Z,46.70
2022-12-17T17:56:58.180Z,43.93
2022-12-17T17:59:31.173Z,41.93
2022-12-17T18:02:00.890Z,41.57
2022-12-17T18:04:28.329Z,41.33
2022-12-17T18:07:24.256Z,44.90
2022-12-17T18:09:42.733Z,43.60
2022-12-17T18:12:28.460Z,42.33
2022-12-17T18:17:42.695Z,36.00
2022-12-17T18:20:17.547Z,37.70
2022-12-17T18:22:45.950Z,36.63
2022-12-17T18:25:13.595Z,33.03
2022-12-17T18:27:42.517Z,38.13
2022-12-17T18:30:10.084Z,38.23
2022-12-17T18:32:37.366Z,38.23
2022-12-17T18:35:04.545Z,32.97
2022-12-17T18:37:31.689Z,42.23
2022-12-17T18:39:58.797Z,37.47
2022-12-17T18:42:44.370Z,34.37
2022-12-17T18:45:11.502Z,44.03
2022-12-17T18:47:38.591Z,38.40
2022-12-17T18:50:05.898Z,41.87
2022-12-17T18:52:32.950Z,40.33
2022-12-17T18:55:00.010Z,35.50
2022-12-17T18:57:27.059Z,34.97
2022-12-17T18:59:54.168Z,38.13
2022-12-17T19:02:21.290Z,29.97
2022-12-17T19:04:48.463Z,38.53
2022-12-17T19:07:15.505Z,36.17
2022-12-17T19:09:42.645Z,35.53
2022-12-17T19:12:10.317Z,38.87
2022-12-17T19:14:37.589Z,36.23
2022-12-17T19:17:05.843Z,41.37
2022-12-17T19:19:33.555Z,40.27
2022-12-17T19:22:00.797Z,35.50
2022-12-17T19:24:28.011Z,34.97
2022-12-17T19:26:55.119Z,40.60
2022-12-17T19:29:22.292Z,36.50
2022-12-17T19:31:49.468Z,33.30
2022-12-17T19:34:18.235Z,35.50
2022-12-17T19:36:45.757Z,48.47
2022-12-17T19:39:14.047Z,41.13
2022-12-17T19:41:41.173Z,44.37
2022-12-17T19:44:11.737Z,36.87
2022-12-17T19:46:39.089Z,40.03
2022-12-17T19:49:06.210Z,49.57
2022-12-17T19:51:33.630Z,37.33
2022-12-17T19:54:08.097Z,47.00
2022-12-17T19:56:36.463Z,46.03
2022-12-17T19:59:06.774Z,44.23
2022-12-17T20:01:38.265Z,36.83
2022-12-17T20:04:06.269Z,44.50
2022-12-17T20:06:34.721Z,44.17
2022-12-17T20:09:02.380Z,38.90
2022-12-17T20:11:35.851Z,37.50
2022-12-17T20:14:09.190Z,38.23
2022-12-17T20:16:37.708Z,36.33
2022-12-17T20:19:06.819Z,37.50
2022-12-17T20:21:33.940Z,41.23
2022-12-17T20:24:01.055Z,39.93
2022-12-17T20:26:28.190Z,40.73
2022-12-17T20:28:59.229Z,39.20
2022-12-17T20:31:27.008Z,47.87
2022-12-17T20:34:05.661Z,41.40
2022-12-17T20:36:33.843Z,35.43
2022-12-17T20:39:01.080Z,36.97
2022-12-17T20:41:29.164Z,36.23
2022-12-17T20:44:09.749Z,34.03
2022-12-17T20:46:37.268Z,28.73
2022-12-17T20:49:05.607Z,33.17
2022-12-17T20:51:34.103Z,27.83
2022-12-17T20:54:02.581Z,31.37
2022-12-17T20:56:30.933Z,30.43
2022-12-17T20:58:59.099Z,31.00
2022-12-17T21:01:27.236Z,35.70
2022-12-17T21:03:55.180Z,32.27
2022-12-17T21:06:23.895Z,30.70
2022-12-17T21:08:54.604Z,31.97
2022-12-17T21:11:23.493Z,28.03
2022-12-17T21:13:53.312Z,31.13
2022-12-17T21:16:22.496Z,29.37
2022-12-17T21:18:50.001Z,25.33
2022-12-17T21:21:19.213Z,30.07
2022-12-17T21:23:47.094Z,27.20
2022-12-17T21:26:15.633Z,23.90
2022-12-17T21:28:45.474Z,35.87
2022-12-17T21:31:19.332Z,28.97
2022-12-17T21:33:49.731Z,25.33
2022-12-17T21:36:18.837Z,34.00
2022-12-17T21:38:46.609Z,31.37
2022-12-17T21:41:14.696Z,31.60
2022-12-17T21:43:41.879Z,30.00
2022-12-17T21:46:09.883Z,26.10
2022-12-17T21:48:42.400Z,33.67
2022-12-17T21:51:10.921Z,27.37
2022-12-17T21:53:43.463Z,30.27
2022-12-17T21:56:15.271Z,27.33
2022-12-17T21:58:43.487Z,38.13
2022-12-17T22:01:18.923Z,28.63
2022-12-17T22:03:46.940Z,30.43
2022-12-17T22:06:16.526Z,26.87
2022-12-17T22:08:44.626Z,27.20
2022-12-17T22:11:12.780Z,27.57
2022-12-17T22:14:06.882Z,28.57
2022-12-17T22:16:42.980Z,28.77
2022-12-17T22:19:11.581Z,31.50
2022-12-17T22:21:40.316Z,30.60
2022-12-17T22:24:07.863Z,30.47
2022-12-17T22:30:09.622Z,30.27
2022-12-17T22:32:55.613Z,38.60
2022-12-17T22:36:34.507Z,34.13
2022-12-17T22:42:19.604Z,29.07
2022-12-17T22:44:36.459Z,25.27
2022-12-17T22:44:41.944Z,29.40
2022-12-17T22:46:51.230Z,33.33
2022-12-17T22:49:18.620Z,33.70
2022-12-17T22:51:45.992Z,31.03
2022-12-17T22:54:14.490Z,32.67
2022-12-17T22:57:35.129Z,25.70
2022-12-17T22:59:30.898Z,29.57
2022-12-17T23:01:57.996Z,34.07
2022-12-17T23:04:25.164Z,31.63
2022-12-17T23:06:52.352Z,29.80
2022-12-17T23:09:20.117Z,30.00
2022-12-17T23:11:48.047Z,27.57
2022-12-17T23:14:15.430Z,33.83
2022-12-17T23:16:42.601Z,37.50
2022-12-17T23:19:09.858Z,33.23
2022-12-17T23:21:37.038Z,34.70
2022-12-17T23:24:29.010Z,33.13
2022-12-17T23:26:56.161Z,40.17
2022-12-17T23:29:23.188Z,40.90
2022-12-17T23:31:51.182Z,29.67
2022-12-17T23:34:19.759Z,35.80
2022-12-17T23:36:46.917Z,29.83
2022-12-17T23:39:14.037Z,34.77
2022-12-17T23:41:41.253Z,34.80
2022-12-17T23:46:44.429Z,39.87
2022-12-17T23:49:11.553Z,37.93
2022-12-17T23:51:38.657Z,32.43
2022-12-17T23:54:05.800Z,33.80
2022-12-17T23:56:36.710Z,39.40
2022-12-17T23:59:03.862Z,35.73
